Time;durP1;ratioP1;P1;durP2;ratioP2;P2;SDS_P1;SDS_P2;PMS_P1;PMS_P2;Temp;Humidity;BMP_temperature;BMP_pressure;BME280_temperature;BME280_humidity;BME280_pressure;Samples;Min_cycle;Max_cycle;Signal;HPM_P1;HPM_P2
2022/11/05 00:10:20;;;;;;;9.50;6.35;;;;;;;;;;5056567;28;20208;-84
2022/11/05 00:18:18;;;;;;;6.60;6.00;;;;;;;;;;5057552;28;20229;-84
2022/11/05 00:20:45;;;;;;;7.03;6.32;;;;;;;;;;5057834;28;20585;-83
2022/11/05 00:26:01;;;;;;;10.70;6.05;;;;;;;;;;5057836;28;20252;-85
2022/11/05 00:28:30;;;;;;;6.55;5.90;;;;;;;;;;5056152;28;20253;-84
2022/11/05 00:31:01;;;;;;;9.13;5.68;;;;;;;;;;5056872;28;20653;-84
2022/11/05 00:33:29;;;;;;;6.68;6.07;;;;;;;;;;5057038;28;20201;-84
2022/11/05 00:35:57;;;;;;;7.70;5.72;;;;;;;;;;5057478;28;20738;-85
2022/11/05 00:38:24;;;;;;;12.45;7.63;;;;;;;;;;5056820;28;20241;-84
2022/11/05 00:40:52;;;;;;;8.68;5.57;;;;;;;;;;5057669;28;20284;-84
2022/11/05 00:46:06;;;;;;;5.00;4.50;;;;;;;;;;5059614;28;20711;-83
2022/11/05 00:51:18;;;;;;;5.75;4.80;;;;;;;;;;5077814;28;20218;-84
2022/11/05 00:53:46;;;;;;;4.30;3.88;;;;;;;;;;5076789;28;20287;-84
2022/11/05 00:56:13;;;;;;;4.35;3.85;;;;;;;;;;5076473;28;20260;-83
2022/11/05 00:58:42;;;;;;;4.32;3.92;;;;;;;;;;5076262;28;20286;-84
2022/11/05 01:01:11;;;;;;;4.80;4.05;;;;;;;;;;5077276;28;20247;-84
2022/11/05 01:03:40;;;;;;;4.95;3.90;;;;;;;;;;5077416;28;20635;-84
2022/11/05 01:06:11;;;;;;;4.20;3.45;;;;;;;;;;5078144;28;20221;-85
2022/11/05 01:08:40;;;;;;;2.95;2.75;;;;;;;;;;5077088;28;20225;-84
2022/11/05 01:11:10;;;;;;;4.97;3.95;;;;;;;;;;5077232;28;20239;-84
2022/11/05 01:13:39;;;;;;;3.80;3.50;;;;;;;;;;5076835;28;20630;-84
2022/11/05 01:16:10;;;;;;;6.88;3.85;;;;;;;;;;5077074;28;20279;-84
2022/11/05 01:18:38;;;;;;;3.10;2.67;;;;;;;;;;5076633;28;20301;-85
2022/11/05 01:21:14;;;;;;;4.15;3.42;;;;;;;;;;5076106;28;20636;-84
2022/11/05 01:23:42;;;;;;;3.67;3.30;;;;;;;;;;5077884;28;20205;-85
2022/11/05 01:26:09;;;;;;;5.47;4.03;;;;;;;;;;5078028;28;20221;-84
2022/11/05 01:28:37;;;;;;;4.65;3.42;;;;;;;;;;5079526;28;20312;-84
2022/11/05 01:31:04;;;;;;;4.85;4.32;;;;;;;;;;5078773;28;20297;-84
2022/11/05 01:33:33;;;;;;;4.72;3.63;;;;;;;;;;5079258;28;20229;-85
2022/11/05 01:36:01;;;;;;;5.22;3.97;;;;;;;;;;5080648;28;20286;-84
2022/11/05 01:38:28;;;;;;;3.25;2.97;;;;;;;;;;5080722;28;20304;-84
2022/11/05 01:40:55;;;;;;;3.95;3.65;;;;;;;;;;5081127;28;20268;-84
2022/11/05 01:43:24;;;;;;;4.22;3.85;;;;;;;;;;5081407;28;20258;-85
2022/11/05 01:45:54;;;;;;;5.00;3.90;;;;;;;;;;5087727;28;20228;-84
2022/11/05 01:48:24;;;;;;;3.83;3.42;;;;;;;;;;5081234;28;20286;-85
2022/11/05 01:50:57;;;;;;;3.30;3.00;;;;;;;;;;5081415;28;20267;-84
2022/11/05 01:53:30;;;;;;;5.63;3.88;;;;;;;;;;5081454;28;20260;-84
2022/11/05 01:56:02;;;;;;;3.58;3.28;;;;;;;;;;5081788;28;20287;-84
2022/11/05 01:58:33;;;;;;;4.82;4.43;;;;;;;;;;5081136;28;20731;-85
2022/11/05 02:01:00;;;;;;;7.57;5.57;;;;;;;;;;5080072;28;20211;-85
2022/11/05 02:03:28;;;;;;;7.80;6.10;;;;;;;;;;5080054;28;20240;-85
2022/11/05 02:05:59;;;;;;;6.80;5.20;;;;;;;;;;5093656;28;20366;-84
2022/11/05 02:08:52;;;;;;;7.47;6.53;;;;;;;;;;5100680;28;20305;-84
2022/11/05 02:11:20;;;;;;;5.93;4.88;;;;;;;;;;5100505;28;20200;-85
2022/11/05 02:13:49;;;;;;;7.22;6.40;;;;;;;;;;5100650;28;20196;-85
2022/11/05 02:16:28;;;;;;;6.70;5.97;;;;;;;;;;5096413;28;20216;-84
2022/11/05 02:19:02;;;;;;;6.93;5.53;;;;;;;;;;5080385;28;20268;-84
2022/11/05 02:21:56;;;;;;;6.05;4.50;;;;;;;;;;5079319;28;20692;-85
2022/11/05 02:25:12;;;;;;;7.70;6.03;;;;;;;;;;5079429;28;20200;-84
2022/11/05 02:28:15;;;;;;;8.43;6.63;;;;;;;;;;5017587;28;20708;-85
2022/11/05 02:30:47;;;;;;;8.10;7.03;;;;;;;;;;5079472;28;20268;-84
2022/11/05 02:33:30;;;;;;;10.65;8.25;;;;;;;;;;5079821;28;20616;-84
2022/11/05 02:36:24;;;;;;;10.05;6.68;;;;;;;;;;5079798;28;20264;-84
2022/11/05 02:38:59;;;;;;;8.90;7.57;;;;;;;;;;5079076;28;20224;-84
2022/11/05 02:41:33;;;;;;;7.95;7.15;;;;;;;;;;5078934;28;20672;-84
2022/11/05 02:44:15;;;;;;;9.70;7.35;;;;;;;;;;5079757;28;20260;-84
2022/11/05 02:46:51;;;;;;;10.48;8.00;;;;;;;;;;5079122;28;20295;-84
2022/11/05 02:49:31;;;;;;;9.00;6.60;;;;;;;;;;5078838;28;20277;-85
2022/11/05 02:52:03;;;;;;;7.95;6.47;;;;;;;;;;5080709;28;20268;-85
2022/11/05 02:54:36;;;;;;;9.90;7.15;;;;;;;;;;5080588;28;20632;-85
2022/11/05 02:57:05;;;;;;;11.27;7.97;;;;;;;;;;5079981;28;20315;-85
2022/11/05 02:59:32;;;;;;;9.05;7.22;;;;;;;;;;5078643;28;20670;-84
2022/11/05 03:02:03;;;;;;;8.02;6.38;;;;;;;;;;5079573;28;20197;-84
2022/11/05 03:04:32;;;;;;;7.28;5.43;;;;;;;;;;5079205;28;20296;-84
2022/11/05 03:07:19;;;;;;;7.40;5.93;;;;;;;;;;5080279;28;20232;-84
2022/11/05 03:10:27;;;;;;;8.23;6.68;;;;;;;;;;5083244;28;20224;-85
2022/11/05 03:13:04;;;;;;;5.95;5.45;;;;;;;;;;5077664;28;20208;-84
2022/11/05 03:15:50;;;;;;;10.25;4.47;;;;;;;;;;5079289;28;20287;-86
2022/11/05 03:18:26;;;;;;;5.60;3.95;;;;;;;;;;5058153;28;20221;-84
2022/11/05 03:21:01;;;;;;;3.90;3.38;;;;;;;;;;5058713;28;20212;-84
2022/11/05 03:23:33;;;;;;;8.23;4.15;;;;;;;;;;5058532;28;20305;-84
2022/11/05 03:26:08;;;;;;;5.72;4.72;;;;;;;;;;5058711;28;20737;-84
2022/11/05 03:28:41;;;;;;;4.50;3.53;;;;;;;;;;5079636;28;20313;-85
2022/11/05 03:31:09;;;;;;;4.38;3.45;;;;;;;;;;5079625;28;20216;-84
2022/11/05 03:33:38;;;;;;;5.40;4.32;;;;;;;;;;5079131;28;20224;-85
2022/11/05 03:36:12;;;;;;;5.82;4.38;;;;;;;;;;5079249;28;20201;-84
2022/11/05 03:38:41;;;;;;;4.93;4.40;;;;;;;;;;5078353;28;20232;-84
2022/11/05 03:41:11;;;;;;;6.32;4.03;;;;;;;;;;5077951;28;20775;-84
2022/11/05 03:43:45;;;;;;;4.63;3.85;;;;;;;;;;5078860;28;20283;-84
2022/11/05 03:46:17;;;;;;;5.60;3.83;;;;;;;;;;5078478;28;20239;-85
2022/11/05 03:48:49;;;;;;;6.18;4.43;;;;;;;;;;5080159;28;20685;-84
2022/11/05 03:51:23;;;;;;;5.10;4.22;;;;;;;;;;5079129;28;20288;-84
2022/11/05 03:53:56;;;;;;;3.67;3.08;;;;;;;;;;5081811;28;20302;-85
2022/11/05 03:56:29;;;;;;;4.57;3.70;;;;;;;;;;5078142;28;20291;-84
2022/11/05 03:58:58;;;;;;;6.97;4.22;;;;;;;;;;5078046;28;20228;-85
2022/11/05 04:01:26;;;;;;;6.30;4.57;;;;;;;;;;5078845;28;20334;-84
2022/11/05 04:03:55;;;;;;;6.38;4.15;;;;;;;;;;5078571;28;20265;-85
2022/11/05 04:14:38;;;;;;;5.13;3.85;;;;;;;;;;5078069;28;20258;-84
2022/11/05 04:17:08;;;;;;;5.03;4.53;;;;;;;;;;5077919;28;20225;-85
2022/11/05 04:25:10;;;;;;;7.22;4.93;;;;;;;;;;5077237;28;20243;-84
2022/11/05 04:27:38;;;;;;;4.63;4.03;;;;;;;;;;5077629;28;20234;-84
2022/11/05 04:30:18;;;;;;;5.38;4.88;;;;;;;;;;5077619;28;20232;-84
2022/11/05 04:33:00;;;;;;;5.63;5.07;;;;;;;;;;5076924;28;20602;-84
2022/11/05 04:35:31;;;;;;;6.60;5.25;;;;;;;;;;5077646;28;20276;-84
2022/11/05 04:37:59;;;;;;;6.45;5.50;;;;;;;;;;5077126;28;20281;-85
2022/11/05 04:40:27;;;;;;;9.35;6.32;;;;;;;;;;5077532;28;20224;-84
2022/11/05 04:42:55;;;;;;;7.88;5.75;;;;;;;;;;5077192;28;20284;-84
2022/11/05 04:45:23;;;;;;;6.88;5.22;;;;;;;;;;5077502;28;20285;-84
2022/11/05 04:47:50;;;;;;;7.30;6.07;;;;;;;;;;5077299;28;20228;-84
2022/11/05 04:50:18;;;;;;;6.75;6.07;;;;;;;;;;5077068;28;20292;-84
2022/11/05 04:52:47;;;;;;;7.85;5.97;;;;;;;;;;5077333;28;20201;-84
2022/11/05 04:55:14;;;;;;;6.47;4.88;;;;;;;;;;5077164;28;20204;-84
2022/11/05 04:57:42;;;;;;;5.47;4.97;;;;;;;;;;5077147;28;20231;-84
2022/11/05 05:00:10;;;;;;;7.38;6.47;;;;;;;;;;5076590;28;20200;-84
2022/11/05 05:02:38;;;;;;;8.02;6.32;;;;;;;;;;5077289;28;20197;-84
2022/11/05 05:05:06;;;;;;;7.35;6.55;;;;;;;;;;5078196;28;20296;-84
2022/11/05 05:07:34;;;;;;;6.97;5.93;;;;;;;;;;5078542;28;20316;-84
2022/11/05 05:10:06;;;;;;;7.72;5.70;;;;;;;;;;5078264;28;20808;-84
2022/11/05 05:12:34;;;;;;;6.30;5.68;;;;;;;;;;5082459;28;20216;-85
2022/11/05 05:15:01;;;;;;;6.60;5.40;;;;;;;;;;5082591;28;20292;-85
2022/11/05 05:17:29;;;;;;;5.07;4.57;;;;;;;;;;5080580;28;20255;-84
2022/11/05 05:22:41;;;;;;;4.82;4.32;;;;;;;;;;5080814;28;20280;-84
2022/11/05 05:25:10;;;;;;;6.50;5.85;;;;;;;;;;5080704;28;20739;-85
2022/11/05 05:27:37;;;;;;;7.47;5.72;;;;;;;;;;5080402;28;20705;-84
2022/11/05 05:30:07;;;;;;;6.47;4.82;;;;;;;;;;5079678;28;20279;-84
2022/11/05 05:32:34;;;;;;;4.18;3.78;;;;;;;;;;5080631;28;20330;-84
2022/11/05 05:35:02;;;;;;;5.00;4.50;;;;;;;;;;5080631;28;20343;-84
2022/11/05 05:37:29;;;;;;;6.43;5.22;;;;;;;;;;5080500;28;20302;-85
2022/11/05 05:39:57;;;;;;;4.07;3.70;;;;;;;;;;5080442;28;20260;-84
2022/11/05 05:42:26;;;;;;;6.43;4.95;;;;;;;;;;5078660;28;20347;-82
2022/11/05 05:44:53;;;;;;;3.75;3.45;;;;;;;;;;5078682;28;20208;-83
2022/11/05 05:47:21;;;;;;;5.00;4.60;;;;;;;;;;5077531;28;20334;-82
2022/11/05 05:49:48;;;;;;;5.32;4.82;;;;;;;;;;5077214;28;20215;-82
2022/11/05 05:52:15;;;;;;;5.68;4.97;;;;;;;;;;5078033;28;20200;-82
2022/11/05 05:54:43;;;;;;;5.90;5.10;;;;;;;;;;5077452;28;20212;-82
2022/11/05 05:57:10;;;;;;;3.85;3.47;;;;;;;;;;5078532;28;20221;-82
2022/11/05 05:59:39;;;;;;;5.30;4.80;;;;;;;;;;5077555;28;20296;-82
2022/11/05 06:02:07;;;;;;;3.42;3.13;;;;;;;;;;5077615;28;20247;-82
2022/11/05 06:04:34;;;;;;;6.40;4.93;;;;;;;;;;5077720;28;20288;-82
2022/11/05 06:07:01;;;;;;;3.28;3.00;;;;;;;;;;5077590;28;20671;-82
2022/11/05 06:09:29;;;;;;;6.57;5.07;;;;;;;;;;5076818;28;20288;-82
2022/11/05 06:11:56;;;;;;;5.88;5.28;;;;;;;;;;5077361;28;20291;-82
2022/11/05 06:14:24;;;;;;;10.05;8.10;;;;;;;;;;5077703;28;20734;-82
2022/11/05 06:16:53;;;;;;;7.78;5.75;;;;;;;;;;5077365;28;20235;-82
2022/11/05 06:19:20;;;;;;;6.47;5.43;;;;;;;;;;5076431;28;20255;-81
2022/11/05 06:21:48;;;;;;;9.35;5.53;;;;;;;;;;5076760;28;20274;-81
2022/11/05 06:24:15;;;;;;;5.85;5.22;;;;;;;;;;5077009;28;20288;-81
2022/11/05 06:26:43;;;;;;;7.07;5.00;;;;;;;;;;5077329;28;20221;-82
2022/11/05 06:29:11;;;;;;;6.07;4.70;;;;;;;;;;5077203;28;20220;-83
2022/11/05 06:31:39;;;;;;;5.90;5.32;;;;;;;;;;5077416;28;20284;-81
2022/11/05 06:34:08;;;;;;;6.78;4.97;;;;;;;;;;5076797;28;20285;-81
2022/11/05 06:36:35;;;;;;;4.50;4.10;;;;;;;;;;5076429;28;20291;-81
2022/11/05 06:39:03;;;;;;;3.47;3.17;;;;;;;;;;5076453;28;20919;-81
2022/11/05 06:41:30;;;;;;;8.48;4.78;;;;;;;;;;5076683;28;20298;-81
2022/11/05 06:43:58;;;;;;;5.20;4.65;;;;;;;;;;5077698;28;20570;-81
2022/11/05 06:46:25;;;;;;;5.10;4.38;;;;;;;;;;5076412;28;20334;-81
2022/11/05 06:48:53;;;;;;;7.70;5.53;;;;;;;;;;5075931;28;20243;-81
2022/11/05 06:51:22;;;;;;;4.85;4.38;;;;;;;;;;5076554;28;20201;-81
2022/11/05 06:53:50;;;;;;;6.68;4.72;;;;;;;;;;5078339;28;20209;-81
2022/11/05 06:56:17;;;;;;;7.15;4.43;;;;;;;;;;5077151;28;20284;-81
2022/11/05 06:58:45;;;;;;;4.32;3.65;;;;;;;;;;5075766;28;20208;-81
2022/11/05 07:01:12;;;;;;;5.72;4.70;;;;;;;;;;5076994;28;20335;-81
2022/11/05 07:03:40;;;;;;;6.30;4.60;;;;;;;;;;5077896;28;20291;-82
2022/11/05 07:06:08;;;;;;;6.95;5.45;;;;;;;;;;5076952;28;20295;-82
2022/11/05 07:08:38;;;;;;;6.82;4.85;;;;;;;;;;5075539;28;20312;-82
2022/11/05 07:11:06;;;;;;;4.55;4.00;;;;;;;;;;5076535;28;20669;-82
2022/11/05 07:13:34;;;;;;;5.50;4.55;;;;;;;;;;5077389;28;20280;-82
2022/11/05 07:16:01;;;;;;;4.60;4.20;;;;;;;;;;5076248;28;20268;-82
2022/11/05 07:18:29;;;;;;;4.65;3.30;;;;;;;;;;5077553;28;20303;-82
2022/11/05 07:20:56;;;;;;;7.30;5.43;;;;;;;;;;5077101;28;20203;-83
2022/11/05 07:23:23;;;;;;;7.78;5.90;;;;;;;;;;5076772;28;20288;-83
2022/11/05 07:25:52;;;;;;;6.85;4.35;;;;;;;;;;5077561;28;20640;-83
2022/11/05 07:28:20;;;;;;;7.82;4.90;;;;;;;;;;5077043;28;20283;-83
2022/11/05 07:30:48;;;;;;;4.38;3.97;;;;;;;;;;5076029;28;20794;-83
2022/11/05 07:33:15;;;;;;;4.28;3.88;;;;;;;;;;5076208;28;20216;-83
2022/11/05 07:35:43;;;;;;;3.78;3.35;;;;;;;;;;5076930;28;20212;-83
2022/11/05 07:38:11;;;;;;;5.15;4.03;;;;;;;;;;5077347;28;20724;-81
2022/11/05 07:40:39;;;;;;;4.68;3.58;;;;;;;;;;5076297;28;20205;-81
2022/11/05 07:43:08;;;;;;;3.30;3.00;;;;;;;;;;5076177;28;20274;-82
2022/11/05 07:45:36;;;;;;;3.28;2.67;;;;;;;;;;5076689;28;20287;-81
2022/11/05 07:48:05;;;;;;;7.30;3.13;;;;;;;;;;5075667;28;20311;-82
2022/11/05 07:50:34;;;;;;;4.47;3.85;;;;;;;;;;5077040;28;20205;-81
2022/11/05 07:53:03;;;;;;;5.05;4.53;;;;;;;;;;5076907;28;20739;-82
2022/11/05 07:55:31;;;;;;;8.10;6.65;;;;;;;;;;5076772;28;20288;-82
2022/11/05 07:57:59;;;;;;;5.35;4.10;;;;;;;;;;5076295;28;20281;-82
2022/11/05 08:00:29;;;;;;;8.13;4.57;;;;;;;;;;5075492;28;20571;-83
2022/11/05 08:03:01;;;;;;;11.07;4.78;;;;;;;;;;5075595;28;20648;-83
2022/11/05 08:05:29;;;;;;;7.05;5.07;;;;;;;;;;5075983;28;20284;-83
2022/11/05 08:07:58;;;;;;;4.32;3.92;;;;;;;;;;5075757;28;20315;-83
2022/11/05 08:10:26;;;;;;;4.97;4.05;;;;;;;;;;5075662;28;20221;-82
2022/11/05 08:12:54;;;;;;;5.40;4.30;;;;;;;;;;5075945;28;20288;-81
2022/11/05 08:15:22;;;;;;;5.00;4.18;;;;;;;;;;5076709;28;20205;-82
2022/11/05 08:17:57;;;;;;;3.40;3.00;;;;;;;;;;5075579;28;20750;-82
2022/11/05 08:20:25;;;;;;;4.40;3.28;;;;;;;;;;5076350;28;20295;-82
2022/11/05 08:22:53;;;;;;;4.20;3.38;;;;;;;;;;5075901;28;20688;-82
2022/11/05 08:25:20;;;;;;;4.03;2.85;;;;;;;;;;5075917;28;20205;-83
2022/11/05 08:27:48;;;;;;;2.42;2.20;;;;;;;;;;5075102;28;20284;-84
2022/11/05 08:30:15;;;;;;;3.88;3.15;;;;;;;;;;5075970;28;20224;-82
2022/11/05 08:32:43;;;;;;;6.32;3.58;;;;;;;;;;5076630;28;20239;-82
2022/11/05 08:35:12;;;;;;;6.47;4.00;;;;;;;;;;5076595;28;20287;-82
2022/11/05 08:37:39;;;;;;;3.20;2.80;;;;;;;;;;5076693;28;20377;-83
2022/11/05 08:40:08;;;;;;;4.60;3.28;;;;;;;;;;5076215;28;20292;-82
2022/11/05 08:42:36;;;;;;;5.30;3.42;;;;;;;;;;5076253;28;20201;-82
2022/11/05 08:45:04;;;;;;;3.00;2.63;;;;;;;;;;5078628;28;20287;-83
2022/11/05 08:47:31;;;;;;;3.15;2.63;;;;;;;;;;5080268;28;20228;-84
2022/11/05 08:49:59;;;;;;;1.77;1.67;;;;;;;;;;5081022;28;20221;-83
2022/11/05 08:52:28;;;;;;;2.95;1.83;;;;;;;;;;5080211;28;20728;-84
2022/11/05 08:54:55;;;;;;;4.78;4.30;;;;;;;;;;5080600;28;20224;-82
2022/11/05 08:57:22;;;;;;;7.15;4.60;;;;;;;;;;5080142;28;20225;-84
2022/11/05 08:59:50;;;;;;;5.05;4.53;;;;;;;;;;5079570;28;20327;-83
2022/11/05 09:02:17;;;;;;;4.63;4.07;;;;;;;;;;5079799;28;20200;-83
2022/11/05 09:04:45;;;;;;;7.53;4.93;;;;;;;;;;5080021;28;20331;-84
2022/11/05 09:07:13;;;;;;;7.88;6.30;;;;;;;;;;5080266;28;20300;-83
2022/11/05 09:09:41;;;;;;;6.32;5.72;;;;;;;;;;5079838;28;20779;-83
2022/11/05 09:12:09;;;;;;;4.13;3.72;;;;;;;;;;5080269;28;20288;-84
2022/11/05 09:14:36;;;;;;;5.07;4.13;;;;;;;;;;5080388;28;20279;-82
2022/11/05 09:17:04;;;;;;;4.57;4.18;;;;;;;;;;5078854;28;20337;-84
2022/11/05 09:19:31;;;;;;;9.38;6.28;;;;;;;;;;5080235;28;20205;-83
2022/11/05 09:21:59;;;;;;;9.43;6.57;;;;;;;;;;5079963;28;20250;-82
2022/11/05 09:24:26;;;;;;;5.90;4.20;;;;;;;;;;5081543;28;20724;-83
2022/11/05 09:26:55;;;;;;;5.03;4.18;;;;;;;;;;5080529;28;20292;-84
2022/11/05 09:29:23;;;;;;;10.32;6.35;;;;;;;;;;5080884;28;20768;-83
2022/11/05 09:31:50;;;;;;;4.85;3.42;;;;;;;;;;5081169;28;20288;-84
2022/11/05 09:34:17;;;;;;;4.20;3.05;;;;;;;;;;5081758;28;20200;-84
2022/11/05 09:36:45;;;;;;;3.35;2.33;;;;;;;;;;5081940;28;20227;-84
2022/11/05 09:39:12;;;;;;;4.03;2.45;;;;;;;;;;5081827;28;20228;-84
2022/11/05 09:41:42;;;;;;;3.53;1.45;;;;;;;;;;5081081;28;20201;-85
2022/11/05 09:44:15;;;;;;;1.50;1.40;;;;;;;;;;5082745;28;20608;-84
2022/11/05 09:46:46;;;;;;;4.43;1.50;;;;;;;;;;5082292;28;20724;-84
2022/11/05 09:49:25;;;;;;;2.95;1.35;;;;;;;;;;5082183;28;20466;-84
2022/11/05 09:51:53;;;;;;;1.00;1.00;;;;;;;;;;5080773;28;20717;-84
2022/11/05 09:54:24;;;;;;;6.95;2.13;;;;;;;;;;5080653;28;20669;-83
2022/11/05 09:56:52;;;;;;;2.00;1.25;;;;;;;;;;5079955;28;20255;-83
2022/11/05 09:59:24;;;;;;;2.08;1.75;;;;;;;;;;5079597;28;20197;-83
2022/11/05 10:01:54;;;;;;;2.70;1.48;;;;;;;;;;5082670;28;20343;-83
2022/11/05 10:04:24;;;;;;;1.42;1.33;;;;;;;;;;5082602;28;20221;-84
2022/11/05 10:06:56;;;;;;;3.67;1.35;;;;;;;;;;5083797;28;20228;-83
2022/11/05 10:09:27;;;;;;;0.93;0.93;;;;;;;;;;5083719;28;20342;-83
2022/11/05 10:11:59;;;;;;;2.28;1.10;;;;;;;;;;5083635;28;20292;-84
2022/11/05 10:14:32;;;;;;;1.23;1.13;;;;;;;;;;5081036;28;20680;-83
2022/11/05 10:17:04;;;;;;;3.47;1.63;;;;;;;;;;5081019;28;20221;-84
2022/11/05 10:19:38;;;;;;;1.65;1.33;;;;;;;;;;5080323;28;20197;-83
2022/11/05 10:22:15;;;;;;;1.63;1.20;;;;;;;;;;5080385;28;20287;-84
2022/11/05 10:24:46;;;;;;;2.72;1.33;;;;;;;;;;5080920;28;20187;-84
2022/11/05 10:27:18;;;;;;;1.85;1.30;;;;;;;;;;5080883;28;20288;-84
2022/11/05 10:29:49;;;;;;;2.17;1.35;;;;;;;;;;5079209;28;20283;-84
2022/11/05 10:32:26;;;;;;;5.07;1.35;;;;;;;;;;5079629;28;20228;-84
2022/11/05 10:34:55;;;;;;;2.30;1.40;;;;;;;;;;5080219;28;20204;-85
2022/11/05 10:37:23;;;;;;;2.58;1.20;;;;;;;;;;5079386;28;20317;-85
2022/11/05 10:39:51;;;;;;;2.95;1.58;;;;;;;;;;5078103;28;20290;-83
2022/11/05 10:42:42;;;;;;;1.88;1.30;;;;;;;;;;5078104;28;20291;-83
2022/11/05 10:45:21;;;;;;;3.13;1.20;;;;;;;;;;5078370;28;20276;-84
2022/11/05 10:48:02;;;;;;;1.65;1.42;;;;;;;;;;5078607;28;20228;-84
2022/11/05 10:50:30;;;;;;;2.42;1.10;;;;;;;;;;5077543;28;20699;-83
2022/11/05 10:53:00;;;;;;;1.30;1.20;;;;;;;;;;5079299;28;20292;-85
2022/11/05 10:55:31;;;;;;;1.55;1.17;;;;;;;;;;5079355;28;20294;-84
2022/11/05 10:58:10;;;;;;;2.50;1.67;;;;;;;;;;5078623;28;20260;-84
2022/11/05 11:00:39;;;;;;;2.00;1.52;;;;;;;;;;5079355;28;20197;-84
2022/11/05 11:03:24;;;;;;;1.30;1.20;;;;;;;;;;5078052;28;20211;-85
2022/11/05 11:05:59;;;;;;;3.60;1.92;;;;;;;;;;5078807;28;20228;-85
2022/11/05 11:08:27;;;;;;;2.13;2.03;;;;;;;;;;5079417;28;20220;-85
2022/11/05 11:10:57;;;;;;;2.00;1.30;;;;;;;;;;5080918;28;20299;-85
2022/11/05 11:13:27;;;;;;;3.80;1.40;;;;;;;;;;5080050;28;20197;-85
2022/11/05 11:16:15;;;;;;;1.70;1.10;;;;;;;;;;5080522;28;20334;-85
2022/11/05 11:18:44;;;;;;;1.45;1.10;;;;;;;;;;5078585;28;20232;-85
2022/11/05 11:21:15;;;;;;;1.27;1.17;;;;;;;;;;5080491;28;20225;-83
2022/11/05 11:23:44;;;;;;;1.30;1.00;;;;;;;;;;5079985;28;20196;-83
2022/11/05 11:26:12;;;;;;;0.85;0.85;;;;;;;;;;5077767;28;20280;-81
2022/11/05 11:28:44;;;;;;;0.90;0.90;;;;;;;;;;5076986;28;20225;-84
2022/11/05 11:31:15;;;;;;;1.92;1.00;;;;;;;;;;5078582;28;20247;-85
2022/11/05 11:33:46;;;;;;;1.48;1.30;;;;;;;;;;5079899;28;20252;-82
2022/11/05 11:36:14;;;;;;;1.00;1.00;;;;;;;;;;5079372;28;20201;-83
2022/11/05 11:38:41;;;;;;;0.90;0.90;;;;;;;;;;5078517;28;20308;-84
2022/11/05 11:41:26;;;;;;;0.80;0.80;;;;;;;;;;5079778;28;20282;-83
2022/11/05 11:43:57;;;;;;;1.48;1.38;;;;;;;;;;5080012;28;20201;-84
2022/11/05 11:46:26;;;;;;;1.30;1.15;;;;;;;;;;5078972;28;20211;-83
2022/11/05 11:48:53;;;;;;;1.17;1.08;;;;;;;;;;5079198;28;20660;-84
2022/11/05 11:51:33;;;;;;;0.90;0.90;;;;;;;;;;5079451;28;20312;-84
2022/11/05 11:54:02;;;;;;;1.40;1.30;;;;;;;;;;5079148;28;20211;-84
2022/11/05 11:56:31;;;;;;;2.55;1.40;;;;;;;;;;5080156;28;20291;-85
2022/11/05 11:59:03;;;;;;;1.30;1.20;;;;;;;;;;5080319;28;20286;-84
2022/11/05 12:02:20;;;;;;;1.42;1.27;;;;;;;;;;5079083;28;20204;-84
2022/11/05 12:05:07;;;;;;;1.27;1.17;;;;;;;;;;5062501;28;20292;-85
2022/11/05 12:07:51;;;;;;;2.20;1.73;;;;;;;;;;5077416;28;20284;-83
2022/11/05 12:10:34;;;;;;;1.02;1.02;;;;;;;;;;5077376;28;20238;-83
2022/11/05 12:13:41;;;;;;;1.20;1.02;;;;;;;;;;5077020;28;20601;-84
2022/11/05 12:16:19;;;;;;;1.45;1.13;;;;;;;;;;5062930;28;20325;-83
2022/11/05 12:18:54;;;;;;;2.55;1.90;;;;;;;;;;5077911;28;20200;-85
2022/11/05 12:21:31;;;;;;;5.40;2.55;;;;;;;;;;5077817;28;20207;-83
2022/11/05 12:24:28;;;;;;;3.00;2.00;;;;;;;;;;5076889;28;20232;-83
2022/11/05 12:27:09;;;;;;;5.03;3.25;;;;;;;;;;5075480;28;20252;-82
2022/11/05 12:29:49;;;;;;;5.55;2.97;;;;;;;;;;5075436;28;20209;-83
2022/11/05 12:33:07;;;;;;;1.92;1.70;;;;;;;;;;5075255;28;20225;-82
2022/11/05 12:35:46;;;;;;;2.90;2.17;;;;;;;;;;5062259;28;20295;-83
2022/11/05 12:38:31;;;;;;;2.00;1.80;;;;;;;;;;5076248;28;20315;-83
2022/11/05 12:41:11;;;;;;;2.58;1.85;;;;;;;;;;5075963;28;20295;-82
2022/11/05 12:43:51;;;;;;;3.17;2.47;;;;;;;;;;5075626;28;20234;-82
2022/11/05 12:46:28;;;;;;;2.38;1.92;;;;;;;;;;5076582;28;20211;-83
2022/11/05 12:49:22;;;;;;;3.13;1.48;;;;;;;;;;5077758;28;20215;-83
2022/11/05 12:52:33;;;;;;;2.00;1.80;;;;;;;;;;5078868;28;20240;-82
2022/11/05 12:55:05;;;;;;;2.80;1.60;;;;;;;;;;5042042;28;20581;-82
2022/11/05 12:57:37;;;;;;;2.88;2.55;;;;;;;;;;5078771;28;20307;-81
2022/11/05 13:00:14;;;;;;;2.20;1.70;;;;;;;;;;5077230;28;20235;-82
2022/11/05 13:02:50;;;;;;;2.05;1.95;;;;;;;;;;5077878;28;20200;-81
2022/11/05 13:05:21;;;;;;;5.20;2.28;;;;;;;;;;5079329;28;20288;-82
2022/11/05 13:08:03;;;;;;;1.90;1.80;;;;;;;;;;5077944;28;20289;-82
2022/11/05 13:10:35;;;;;;;2.70;2.45;;;;;;;;;;5077209;28;20236;-83
2022/11/05 13:13:09;;;;;;;1.80;1.67;;;;;;;;;;5078672;28;20232;-82
2022/11/05 13:15:41;;;;;;;1.67;1.58;;;;;;;;;;5077809;28;20201;-83
2022/11/05 13:18:15;;;;;;;1.98;1.88;;;;;;;;;;5077416;28;20260;-84
2022/11/05 13:20:49;;;;;;;1.83;1.70;;;;;;;;;;5077305;28;20647;-84
2022/11/05 13:23:26;;;;;;;2.03;1.90;;;;;;;;;;5078096;28;20291;-84
2022/11/05 13:25:58;;;;;;;1.98;1.77;;;;;;;;;;5078249;28;20208;-84
2022/11/05 13:28:35;;;;;;;2.58;1.75;;;;;;;;;;5077889;28;20325;-83
2022/11/05 13:31:05;;;;;;;2.50;1.85;;;;;;;;;;5078913;28;20288;-83
2022/11/05 13:33:35;;;;;;;2.45;2.17;;;;;;;;;;5081302;28;20227;-83
2022/11/05 13:38:59;;;;;;;2.30;1.90;;;;;;;;;;5081228;28;20272;-83
2022/11/05 13:41:44;;;;;;;2.10;1.95;;;;;;;;;;5081039;28;20208;-83
2022/11/05 13:44:38;;;;;;;3.88;2.65;;;;;;;;;;5081440;28;20302;-84
2022/11/05 13:47:27;;;;;;;2.58;1.63;;;;;;;;;;5081171;28;20347;-84
2022/11/05 13:50:18;;;;;;;1.77;1.67;;;;;;;;;;5080376;28;20645;-83
2022/11/05 13:53:41;;;;;;;1.58;1.48;;;;;;;;;;5080203;28;20221;-84
2022/11/05 13:56:25;;;;;;;2.95;1.63;;;;;;;;;;5030473;28;20264;-84
2022/11/05 13:59:36;;;;;;;1.50;1.40;;;;;;;;;;5080806;28;20387;-83
2022/11/05 14:02:10;;;;;;;1.35;1.20;;;;;;;;;;5080287;28;20197;-83
2022/11/05 14:04:41;;;;;;;4.68;1.60;;;;;;;;;;5080041;28;20717;-83
2022/11/05 14:07:11;;;;;;;2.90;2.13;;;;;;;;;;5080407;28;20221;-84
2022/11/05 14:09:39;;;;;;;1.60;1.50;;;;;;;;;;5080694;28;20211;-84
2022/11/05 14:12:20;;;;;;;1.55;1.40;;;;;;;;;;5080267;28;20316;-83
2022/11/05 14:14:51;;;;;;;2.10;1.30;;;;;;;;;;5079248;28;20688;-83
2022/11/05 14:17:31;;;;;;;1.80;1.70;;;;;;;;;;5079582;28;20366;-84
2022/11/05 14:20:26;;;;;;;2.47;1.63;;;;;;;;;;5079410;28;20229;-84
2022/11/05 14:22:54;;;;;;;1.75;1.65;;;;;;;;;;5079128;28;20655;-83
2022/11/05 14:26:11;;;;;;;1.35;1.20;;;;;;;;;;5079453;28;20296;-84
2022/11/05 14:28:47;;;;;;;1.60;1.50;;;;;;;;;;5078217;28;20328;-81
2022/11/05 14:31:42;;;;;;;1.77;1.48;;;;;;;;;;5077616;28;20287;-81
2022/11/05 14:34:39;;;;;;;1.60;1.50;;;;;;;;;;5080114;28;20260;-84
2022/11/05 14:37:30;;;;;;;1.30;1.20;;;;;;;;;;5077045;28;20279;-84
2022/11/05 14:40:26;;;;;;;1.17;1.08;;;;;;;;;;5079991;28;20269;-84
2022/11/05 14:42:55;;;;;;;1.65;1.55;;;;;;;;;;5079881;28;20208;-84
2022/11/05 14:45:30;;;;;;;1.60;1.50;;;;;;;;;;5080619;28;20268;-84
2022/11/05 14:48:00;;;;;;;1.38;1.27;;;;;;;;;;5079280;28;20727;-83
2022/11/05 14:50:36;;;;;;;1.35;1.20;;;;;;;;;;5079835;28;20205;-83
2022/11/05 14:53:23;;;;;;;1.48;1.38;;;;;;;;;;5079769;28;20303;-84
2022/11/05 14:55:59;;;;;;;1.90;1.70;;;;;;;;;;5080082;28;20291;-84
2022/11/05 14:58:36;;;;;;;2.53;1.73;;;;;;;;;;5078930;28;20225;-84
2022/11/05 15:01:08;;;;;;;1.60;1.40;;;;;;;;;;5079913;28;20211;-83
2022/11/05 15:04:02;;;;;;;1.63;1.17;;;;;;;;;;5078356;28;20205;-83
2022/11/05 15:06:35;;;;;;;6.57;4.90;;;;;;;;;;5078674;28;20292;-83
2022/11/05 15:09:32;;;;;;;5.95;3.83;;;;;;;;;;5078680;28;20292;-82
2022/11/05 15:12:13;;;;;;;2.65;2.42;;;;;;;;;;5077155;28;20279;-84
2022/11/05 15:14:53;;;;;;;4.22;3.90;;;;;;;;;;5078349;28;20684;-83
2022/11/05 15:17:28;;;;;;;1.75;1.58;;;;;;;;;;5078180;28;20224;-83
2022/11/05 15:20:00;;;;;;;2.15;2.00;;;;;;;;;;5091787;28;20287;-83
2022/11/05 15:22:32;;;;;;;1.60;1.50;;;;;;;;;;5099760;28;20287;-83
2022/11/05 15:25:00;;;;;;;1.90;1.80;;;;;;;;;;5098559;28;20220;-83
2022/11/05 15:27:47;;;;;;;1.63;1.50;;;;;;;;;;5098386;28;20310;-83
2022/11/05 15:30:18;;;;;;;1.90;1.70;;;;;;;;;;5097828;28;20295;-83
2022/11/05 15:32:47;;;;;;;3.80;1.60;;;;;;;;;;5097537;28;20767;-82
2022/11/05 15:35:25;;;;;;;1.50;1.40;;;;;;;;;;5098194;28;20323;-85
2022/11/05 15:37:55;;;;;;;1.48;1.38;;;;;;;;;;5097675;28;20220;-84
2022/11/05 15:40:27;;;;;;;1.67;1.58;;;;;;;;;;5098835;28;20291;-84
2022/11/05 15:43:12;;;;;;;2.03;1.30;;;;;;;;;;5099509;28;20658;-84
2022/11/05 15:45:40;;;;;;;1.40;1.27;;;;;;;;;;5097720;28;20263;-84
2022/11/05 15:48:20;;;;;;;1.70;1.60;;;;;;;;;;5078094;28;20316;-84
2022/11/05 15:50:47;;;;;;;2.08;1.95;;;;;;;;;;5076891;28;20228;-81
2022/11/05 15:53:36;;;;;;;1.98;1.80;;;;;;;;;;5076534;28;20319;-82
2022/11/05 15:56:11;;;;;;;1.50;1.35;;;;;;;;;;5076299;28;20264;-82
2022/11/05 15:58:47;;;;;;;2.15;1.48;;;;;;;;;;5076512;28;20220;-84
2022/11/05 16:01:23;;;;;;;2.00;1.75;;;;;;;;;;5076429;28;20290;-83